Nearby METAR Reports

 

EGAA - Belfast International Airport
Distance from station: W 19.6km
Updated: 14/11/2018 04:20
Light rain, Mostly cloudy
Light rain, Mostly cloudy
 Wind from S
Wind: S 20 km/h
Temperature: 12°C
Dew Point: 11°C
Humidity: 94%
Barometer: 1006 hPa
Summary: Light rain
Clouds: Mostly cloudy
Visibility: 10 km
Cloud details: Mostly cloudy 152 m
Mostly cloudy 274 m
2018/11/14 04:20 EGAA 140420Z AUTO 18011KT 9999 -RA BKN005/// BKN009/// 12/11 Q1006 RERA
EGAC - George Best Belfast City Airport
Distance from station: SE 6.4km
Updated: 14/11/2018 04:20
Heavy rain, Mostly cloudy
Heavy rain, Mostly cloudy
 Wind from S
Wind: S 22 km/h
Temperature: 13°C
Dew Point: 12°C
Humidity: 94%
Barometer: 1006 hPa
Summary: Heavy rain
Clouds: Mostly cloudy
Visibility: 3 km
Cloud details: Mostly cloudy 366 m
2018/11/14 04:20 EGAC 140420Z AUTO 19012KT 2800 +RA BKN012/// 13/12 Q1006